Anniston Metropolitan Airport
KANB : now visible

Airfield :











YOU CAN JOIN US ON...

 
LOGIN :

Register | Disclaimer

   EN    FR    IT 

 









Legend :    VFR   Marginal VFR   IFR   Intensive IFR   Very Intensive IFR
Visi :
Ceiling :
>= 8 km
>= 3000ft
5 to 8 km
1000 to 3000 ft
1500m to 5 km
500 to 1000 ft
800 to 1500m
200 to 500 ft
< 800m
< 200 ft
Symbols :   Thunderstorms  Fog  Heavy snow  Heavy precipitations  Wind > 20 kt






- Airport Elevation : 612 ft
- IATA code : ANB


KANB - Anniston Metropolitan

CURRENT METAR :
  • 080926Z AUTO 00000KT 1/2SM FG VV002 15/15 A3023 RMK AO2 T01500150

EXPIRED METARs :
  • 080853Z AUTO 00000KT 1/4SM FG VV001 16/16 A3023 RMK AO2 SLP234 T01560156 57010
  • 080753Z AUTO 00000KT 1/4SM FG VV002 16/16 A3025 RMK AO2 SLP238 T01610161
  • 080653Z AUTO 00000KT 1/4SM FG VV001 16/16 A3025 RMK AO2 SLP239 T01610161

TAF KANB
Valid from the 08 at 07:00 until the 09 at 06:00 UTC


080634Z 0807/0906 00000KT 1/4SM FG VV002
FM081500 24005KT P6SM SCT010
FM081800 24008KT P6SM SCT040
FM090000 VRB02KT P6SM SCT250
KZTL FIR / North America



MET'MAP, your aeronautical weather chart ! - Copyright ORBIFLY December 2007 - Disclaimer

ORBIFLY MET'MAP TEAM :

Programming & Development : Alexandra Zaïnal
Original concept : Baudouin d'Aumeries
Technical & hardware support : Manuel Goepfert
Assistance : Marc-Olivier Méhu




SOURCES & CREDITS :

   NOAA       Earth
Advisory